TimeCDT,TemperatureF,Dew PointF,Humidity,Sea Level PressureIn,VisibilityMPH,Wind Direction,Wind SpeedMPH,Gust SpeedMPH,PrecipitationIn,Events,Conditions,WindDirDegrees,DateUTC
12:12 AM,69.8,66.2,88,29.91,10.0,Calm,Calm,-,N/A,Rain,Light Rain,0,2013-08-27 05:12:00
12:33 AM,69.8,66.2,88,29.90,10.0,SE,3.5,-,N/A,Rain,Light Rain,140,2013-08-27 05:33:00
12:53 AM,69.8,66.2,88,29.90,10.0,Calm,Calm,-,N/A,Rain,Light Rain,0,2013-08-27 05:53:00
1:12 AM,68.0,66.2,94,29.90,7.0,Calm,Calm,-,N/A,,Scattered Clouds,0,2013-08-27 06:12:00
1:33 AM,68.0,66.2,94,29.89,5.0,Calm,Calm,-,N/A,,Clear,0,2013-08-27 06:33:00
1:53 AM,68.0,66.2,94,29.87,5.0,Calm,Calm,-,N/A,,Clear,0,2013-08-27 06:53:00
2:12 AM,66.2,66.2,100,29.87,7.0,NE,3.5,-,N/A,,Clear,40,2013-08-27 07:12:00
2:33 AM,66.2,66.2,100,29.86,7.0,Calm,Calm,-,N/A,,Clear,0,2013-08-27 07:33:00
2:53 AM,66.2,66.2,100,29.86,5.0,Calm,Calm,-,N/A,,Clear,0,2013-08-27 07:53:00
3:12 AM,66.2,64.4,94,29.85,4.0,Calm,Calm,-,N/A,,Clear,0,2013-08-27 08:12:00
3:33 AM,66.2,64.4,94,29.85,3.0,Calm,Calm,-,N/A,,Clear,0,2013-08-27 08:33:00
3:53 AM,64.4,62.6,94,29.86,1.0,Calm,Calm,-,N/A,,Mist,0,2013-08-27 08:53:00
4:12 AM,64.4,64.4,100,29.86,1.2,Calm,Calm,-,N/A,,Mist,0,2013-08-27 09:12:00
4:33 AM,62.6,62.6,100,29.87,3.0,Calm,Calm,-,N/A,,Clear,0,2013-08-27 09:33:00
4:53 AM,62.6,62.6,100,29.88,0.5,Calm,Calm,-,N/A,Fog,Fog,0,2013-08-27 09:53:00
5:12 AM,62.6,62.6,100,29.89,0.5,Calm,Calm,-,N/A,Fog,Fog,0,2013-08-27 10:12:00
5:33 AM,62.6,60.8,94,29.88,0.5,Calm,Calm,-,N/A,Fog,Fog,0,2013-08-27 10:33:00
5:53 AM,60.8,60.8,100,29.89,0.5,Calm,Calm,-,N/A,Fog,Fog,0,2013-08-27 10:53:00
6:12 AM,60.8,60.8,100,29.89,0.5,Calm,Calm,-,N/A,Fog,Fog,0,2013-08-27 11:12:00
6:33 AM,60.8,60.8,100,29.89,0.2,Calm,Calm,-,N/A,Fog,Fog,0,2013-08-27 11:33:00
6:53 AM,60.8,60.8,100,29.89,0.2,Calm,Calm,-,N/A,Fog,Fog,0,2013-08-27 11:53:00
7:12 AM,62.6,62.6,100,29.89,1.0,Calm,Calm,-,N/A,,Mostly Cloudy,0,2013-08-27 12:12:00
7:33 AM,62.6,62.6,100,29.89,0.5,Calm,Calm,-,N/A,Fog,Fog,0,2013-08-27 12:33:00
7:53 AM,64.4,64.4,100,29.90,1.0,Calm,Calm,-,N/A,,Mostly Cloudy,0,2013-08-27 12:53:00
8:12 AM,66.2,66.2,100,29.90,10.0,Calm,Calm,-,N/A,,Clear,0,2013-08-27 13:12:00
8:33 AM,69.8,68.0,94,29.90,10.0,Calm,Calm,-,N/A,,Clear,0,2013-08-27 13:33:00
8:53 AM,69.8,68.0,94,29.90,10.0,Calm,Calm,-,N/A,,Clear,0,2013-08-27 13:53:00
9:12 AM,71.6,68.0,88,29.90,10.0,Calm,Calm,-,N/A,,Clear,0,2013-08-27 14:12:00
9:33 AM,73.4,66.2,78,29.90,10.0,Calm,Calm,-,N/A,,Clear,0,2013-08-27 14:33:00
9:53 AM,73.4,64.4,73,29.90,10.0,Calm,Calm,-,N/A,,Clear,0,2013-08-27 14:53:00
10:12 AM,75.2,66.2,73,29.90,10.0,Calm,Calm,-,N/A,,Clear,0,2013-08-27 15:12:00
10:33 AM,75.2,68.0,78,29.90,10.0,Calm,Calm,-,N/A,,Clear,0,2013-08-27 15:33:00
10:53 AM,77.0,68.0,74,29.91,10.0,ENE,3.5,-,N/A,,Clear,70,2013-08-27 15:53:00
11:13 AM,78.8,66.2,65,29.91,10.0,Calm,Calm,-,N/A,,Clear,0,2013-08-27 16:13:00
11:33 AM,78.8,64.4,61,29.91,10.0,NE,4.6,-,N/A,,Clear,50,2013-08-27 16:33:00
11:53 AM,80.6,66.2,61,29.91,10.0,Calm,Calm,-,N/A,,Clear,0,2013-08-27 16:53:00
12:12 PM,80.6,66.2,61,29.90,10.0,NNE,4.6,-,N/A,,Clear,30,2013-08-27 17:12:00
12:33 PM,80.6,66.2,61,29.90,10.0,NE,3.5,-,N/A,,Clear,50,2013-08-27 17:33:00
12:53 PM,82.4,64.4,54,29.89,10.0,NE,3.5,-,N/A,,Clear,40,2013-08-27 17:53:00
1:12 PM,82.4,64.4,54,29.89,10.0,NNE,4.6,-,N/A,,Clear,30,2013-08-27 18:12:00
1:33 PM,84.2,62.6,48,29.88,10.0,East,5.8,-,N/A,,Clear,100,2013-08-27 18:33:00
1:53 PM,84.2,62.6,48,29.88,10.0,East,4.6,-,N/A,,Clear,80,2013-08-27 18:53:00
2:12 PM,84.2,60.8,45,29.88,10.0,East,4.6,-,N/A,,Clear,80,2013-08-27 19:12:00
2:33 PM,86.0,62.6,45,29.88,10.0,Calm,Calm,-,N/A,,Clear,0,2013-08-27 19:33:00
2:53 PM,86.0,62.6,45,29.88,10.0,ENE,3.5,-,N/A,,Clear,70,2013-08-27 19:53:00
3:12 PM,86.0,62.6,45,29.88,10.0,Calm,Calm,-,N/A,,Clear,0,2013-08-27 20:12:00
3:33 PM,87.8,62.6,43,29.88,10.0,NE,3.5,-,N/A,,Clear,40,2013-08-27 20:33:00
3:53 PM,86.0,62.6,45,29.89,10.0,Calm,Calm,-,N/A,,Scattered Clouds,0,2013-08-27 20:53:00
4:12 PM,87.8,62.6,43,29.89,10.0,West,5.8,-,N/A,,Scattered Clouds,270,2013-08-27 21:12:00
4:33 PM,86.0,60.8,43,29.89,10.0,NNW,4.6,-,N/A,,Scattered Clouds,340,2013-08-27 21:33:00
4:53 PM,84.2,62.6,48,29.90,10.0,NW,5.8,-,N/A,,Scattered Clouds,320,2013-08-27 21:53:00
5:12 PM,86.0,62.6,45,29.89,10.0,Calm,Calm,-,N/A,,Scattered Clouds,0,2013-08-27 22:12:00
5:33 PM,86.0,60.8,43,29.90,10.0,NW,4.6,-,N/A,,Scattered Clouds,320,2013-08-27 22:33:00
5:53 PM,84.2,64.4,51,29.90,10.0,Calm,Calm,-,N/A,,Mostly Cloudy,0,2013-08-27 22:53:00
6:12 PM,84.2,64.4,51,29.91,10.0,NNE,3.5,-,N/A,,Scattered Clouds,30,2013-08-27 23:12:00
6:33 PM,84.2,64.4,51,29.91,10.0,NNE,3.5,-,N/A,,Clear,20,2013-08-27 23:33:00
6:53 PM,82.4,64.4,54,29.91,10.0,Calm,Calm,-,N/A,,Clear,0,2013-08-27 23:53:00
7:12 PM,82.4,64.4,54,29.90,10.0,Calm,Calm,-,N/A,,Clear,0,2013-08-28 00:12:00
7:33 PM,82.4,64.4,54,29.91,10.0,Calm,Calm,-,N/A,,Clear,0,2013-08-28 00:33:00
7:52 PM,77.0,66.2,69,29.91,10.0,Calm,Calm,-,N/A,,Clear,0,2013-08-28 00:52:00
8:13 PM,75.2,66.2,73,29.92,10.0,Calm,Calm,-,N/A,,Clear,0,2013-08-28 01:13:00
8:32 PM,73.4,66.2,78,29.92,10.0,Calm,Calm,-,N/A,,Clear,0,2013-08-28 01:32:00
8:52 PM,71.6,66.2,83,29.93,10.0,Calm,Calm,-,N/A,,Clear,0,2013-08-28 01:52:00
9:13 PM,69.8,64.4,83,29.94,10.0,ESE,5.8,-,N/A,,Clear,120,2013-08-28 02:13:00
9:33 PM,73.4,66.2,78,29.94,10.0,SSE,4.6,-,N/A,,Clear,160,2013-08-28 02:33:00
9:52 PM,71.6,68.0,88,29.94,10.0,SSE,4.6,-,N/A,,Clear,160,2013-08-28 02:52:00
10:13 PM,71.6,68.0,88,29.94,10.0,South,3.5,-,N/A,,Clear,170,2013-08-28 03:13:00
10:33 PM,71.6,66.2,83,29.95,10.0,Calm,Calm,-,N/A,,Clear,0,2013-08-28 03:33:00
10:53 PM,69.8,66.2,88,29.96,10.0,Calm,Calm,-,N/A,,Clear,0,2013-08-28 03:53:00
11:13 PM,69.8,66.2,88,29.96,10.0,Calm,Calm,-,N/A,,Clear,0,2013-08-28 04:13:00
11:33 PM,66.2,64.4,94,29.96,10.0,Calm,Calm,-,N/A,,Clear,0,2013-08-28 04:33:00